M I D A S
Marine Information and Data Acquisition System
Tripno 336 of the Zeeleeuw from 2002-09-17 06:37:24 to 2002-09-17 14:37:17
Back to CruiseResearch ActivitiesStationsMapUnderway DataData graphs

EquipmentUnitsComment
TimeDGPSUTC
LatitudeDGPSDM.mWGS84
LongitudeDGPSDM.mWGS84
HeadingGyrodeg 
SOGDGPSknotsSpeed over ground
COGDGPSdegCourse over ground
DepthEcho soundermeters200 kHz
Missing or incorrect values are displayed as -999
Navigation data collected by the RV Zeeleeuw from 2002-09-17 06:37:24 to 2002-09-17 14:37:17
                                                                                    Next 1000 lines
Time Latitude Longitude Heading SOG COG Depth
2002-09-17 06:37:30 51°13.661 2°55.961 122.3   41.4 8.2
2002-09-17 06:37:35 51°13.661 2°55.961 122.5   25.6 8.2
2002-09-17 06:37:41 51°13.661 2°55.961 122.5   7 8.2
2002-09-17 06:37:46 51°13.66 2°55.961 122.7   4.9 8.2
2002-09-17 06:37:51 51°13.66 2°55.961 122.5   167.9 8.2
2002-09-17 06:37:55 51°13.66 2°55.961 122.3   189.5 8.2
2002-09-17 06:38:01 51°13.66 2°55.961 121.8   229.9 8.2
2002-09-17 06:38:06 51°13.66 2°55.961 121.3   198.4 8.2
2002-09-17 06:38:11 51°13.66 2°55.961 120.7 0.1 190 8.2
2002-09-17 06:38:16 51°13.66 2°55.961 120   201.1 8.2
2002-09-17 06:38:21 51°13.66 2°55.961 119.2 0.1 192.4 8.2
2002-09-17 06:38:26 51°13.66 2°55.961 118.3 0.1 182.6 8.3
2002-09-17 06:38:31 51°13.66 2°55.961 117.5 0.1 188.8 8.3
2002-09-17 06:38:35 51°13.66 2°55.961 116.7 0.1 195.9 8.3
2002-09-17 06:38:41 51°13.66 2°55.961 116 0.1 183 8.3
2002-09-17 06:38:46 51°13.66 2°55.961 115.2 0.1 174.2 8.3
2002-09-17 06:38:50 51°13.66 2°55.961 114.2 0.1 181 8.3
2002-09-17 06:38:56 51°13.66 2°55.96 113.5 0.1 197.9 8.3
2002-09-17 06:39:01 51°13.66 2°55.96 112.7 0.1 197.1 8.3
2002-09-17 06:39:06 51°13.66 2°55.96 111.8 0.1 188.4 8.3
2002-09-17 06:39:11 51°13.66 2°55.96 111 0.1 184.1 8.3
2002-09-17 06:39:15 51°13.66 2°55.96 110.3 0.1 186.2 8.3
2002-09-17 06:39:19 51°13.66 2°55.96 109.5 0.1 206.9 8.3
2002-09-17 06:39:26 51°13.659 2°55.961 108.7 0.1 199.3 8.3
2002-09-17 06:39:31 51°13.659 2°55.961 108 0.1 196.2 8.3
2002-09-17 06:39:36 51°13.658 2°55.961 107.3   218.1 8.3
2002-09-17 06:39:41 51°13.658 2°55.96 106.8 0.1 265.4 8.3
2002-09-17 06:39:46 51°13.659 2°55.959 106.5 0.2 286.7 8.2
2002-09-17 06:39:51 51°13.659 2°55.958 106.3 0.5 290.1 8.2
2002-09-17 06:39:55 51°13.66 2°55.956 106.3 0.8 289.1 8.3
2002-09-17 06:40:01 51°13.66 2°55.953 106.5 1.1 290.3 8.3
2002-09-17 06:40:06 51°13.661 2°55.95 106.3 1.4 290.1 8.4
2002-09-17 06:40:11 51°13.662 2°55.946 105.8 1.6 290.4 -999
2002-09-17 06:40:17 51°13.663 2°55.941 104.7 1.8 288.8 -999
2002-09-17 06:40:22 51°13.664 2°55.937 103.5 1.9 287.6 -999
2002-09-17 06:40:27 51°13.665 2°55.933 102.3 2 285.8 -999
2002-09-17 06:40:31 51°13.665 2°55.929 101.3 2 284.5 -999
2002-09-17 06:40:37 51°13.666 2°55.924 100.7 2.1 282.9 -999
2002-09-17 06:40:42 51°13.667 2°55.919 99.7 2.1 281.5 -999
2002-09-17 06:40:47 51°13.667 2°55.914 99 2.2 279.9 -999
2002-09-17 06:40:51 51°13.667 2°55.91 98.2 2.2 279.1 -999
2002-09-17 06:40:57 51°13.668 2°55.904 97.5 2.3 278.6 -999
2002-09-17 06:41:02 51°13.668 2°55.899 97 2.4 278 -999
2002-09-17 06:41:07 51°13.669 2°55.894 96.3 2.4 276.8 -999
2002-09-17 06:41:11 51°13.669 2°55.889 95.8 2.5 276.3 -999
2002-09-17 06:41:18 51°13.669 2°55.881 95.5 2.6 275.6 -999
2002-09-17 06:41:22 51°13.669 2°55.877 95.2 2.6 275.6 -999
2002-09-17 06:41:27 51°13.67 2°55.871 94.7 2.6 275.6 -999
2002-09-17 06:41:31 51°13.67 2°55.866 94.2 2.6 275.6 -999
2002-09-17 06:41:37 51°13.67 2°55.859 93.3 2.7 275.3 -999
2002-09-17 06:41:42 51°13.671 2°55.853 92.5 2.8 275.2 -999
2002-09-17 06:41:47 51°13.671 2°55.847 91.7 2.8 274.4 10.6
2002-09-17 06:41:51 51°13.672 2°55.842 91 2.9 273.3 -999
2002-09-17 06:41:57 51°13.672 2°55.835 90.3 2.9 272.3 -999
2002-09-17 06:42:02 51°13.673 2°55.829 89.8 2.9 271.8 -999
2002-09-17 06:42:07 51°13.673 2°55.823 89.5 2.9 271.4 -999
2002-09-17 06:42:11 51°13.673 2°55.818 89.3 2.9 271.1 -999
2002-09-17 06:42:17 51°13.673 2°55.811 89.3 2.7 271.2 -999
2002-09-17 06:42:22 51°13.673 2°55.805 89.3 2.6 271.2 -999
2002-09-17 06:42:27 51°13.673 2°55.8 89 2.4 271.2 10.6
2002-09-17 06:42:31 51°13.672 2°55.796 88.5 2.2 271.4 10.6
2002-09-17 06:42:36 51°13.672 2°55.792 87.7 1.9 272.4 10.9
2002-09-17 06:42:41 51°13.672 2°55.789 86.2 1.5 272.2 11.1
2002-09-17 06:42:46 51°13.672 2°55.787 83.5 1.2 273.8 11.3
2002-09-17 06:42:51 51°13.673 2°55.786 80.8 0.8 278.7 11.3
2002-09-17 06:42:56 51°13.673 2°55.785 77.5 0.5 292 11.5
2002-09-17 06:43:01 51°13.674 2°55.785 74.2 0.3 329.3 11.6
2002-09-17 06:43:06 51°13.675 2°55.785 70.7 0.3 20.4 11.2
2002-09-17 06:43:10 51°13.675 2°55.786 66.5 0.5 41.2 11.5
2002-09-17 06:43:15 51°13.676 2°55.787 61.8 0.8 44 11.4
2002-09-17 06:43:21 51°13.677 2°55.789 56.8 1 43.4 11.3
2002-09-17 06:43:26 51°13.679 2°55.791 52 1.2 40 11.3
2002-09-17 06:43:31 51°13.68 2°55.793 46.5 1.3 38.3 11.3
2002-09-17 06:43:36 51°13.682 2°55.794 41.8 1.3 31.9 11.4
2002-09-17 06:43:41 51°13.683 2°55.795 39 1.3 29.5 11.2
2002-09-17 06:43:46 51°13.685 2°55.796 35.8 1.2 25.9 11.2
2002-09-17 06:43:51 51°13.686 2°55.796 32.8 0.9 22.3 11.3
2002-09-17 06:43:56 51°13.687 2°55.796 30.5 0.7 9 11.3
2002-09-17 06:44:01 51°13.687 2°55.796 28.5 0.5 352.8 11.4
2002-09-17 06:44:06 51°13.687 2°55.795 26.7 0.3 316.9 11.4
2002-09-17 06:44:11 51°13.687 2°55.794 24.8 0.3 256.9 11.4
2002-09-17 06:44:16 51°13.686 2°55.794 23.3 0.5 236.4 11.6
2002-09-17 06:44:19 51°13.686 2°55.793 21.5 0.6 226.5 11.6
2002-09-17 06:44:26 51°13.685 2°55.792 20 0.7 220.3 11.6
2002-09-17 06:44:32 51°13.683 2°55.79 18 0.9 215.1 -999
2002-09-17 06:44:37 51°13.682 2°55.788 16 1.1 208.3 -999
2002-09-17 06:44:42 51°13.681 2°55.787 14.3 1.2 205.6 -999
2002-09-17 06:44:47 51°13.68 2°55.786 13.2 1.1 203.6 11.8
2002-09-17 06:44:50 51°13.679 2°55.785 12.2 1.1 203.4 -999
2002-09-17 06:44:57 51°13.677 2°55.784 11 1 201.8 -999
2002-09-17 06:45:02 51°13.676 2°55.784 9.8 0.9 202.1 -999
2002-09-17 06:45:07 51°13.675 2°55.784 9 0.8 201.9 -999
2002-09-17 06:45:12 51°13.674 2°55.783 8.3 0.7 204.8 11.6
2002-09-17 06:45:15 51°13.674 2°55.783 7.2 0.5 210.6 11.6
2002-09-17 06:45:19 51°13.673 2°55.783 5.5 0.3 234.2 11.6
2002-09-17 06:45:26 51°13.674 2°55.782 3.2 0.3 312.5 11.5
2002-09-17 06:45:31 51°13.676 2°55.781 359 0.7 340.4 11.6
2002-09-17 06:45:35 51°13.677 2°55.78 353 1.1 343.6 -999
2002-09-17 06:45:42 51°13.681 2°55.778 345.8 1.8 341.8 -999
2002-09-17 06:45:46 51°13.684 2°55.776 340.8 2.2 337.8 13.4
2002-09-17 06:45:50 51°13.687 2°55.774 337.2 2.7 334.9 13.8
2002-09-17 06:45:56 51°13.691 2°55.769 334 3.2 330.6 14
2002-09-17 06:46:01 51°13.696 2°55.764 331.5 3.7 328 14.9
2002-09-17 06:46:06 51°13.701 2°55.758 330.2 4 325.9 14.5
2002-09-17 06:46:11 51°13.706 2°55.752 330.3 4.5 325.1 13.9
2002-09-17 06:46:15 51°13.71 2°55.747 330 4.8 324.9 13.2
2002-09-17 06:46:21 51°13.718 2°55.739 329 5.2 324.4 11.4
2002-09-17 06:46:26 51°13.724 2°55.732 328.3 5.4 323.6 11.1
2002-09-17 06:46:31 51°13.731 2°55.724 328.2 5.7 323.3 10.5
2002-09-17 06:46:36 51°13.737 2°55.716 328 5.9 323 10.4
2002-09-17 06:46:40 51°13.743 2°55.709 327.8 6.1 323.1 10.3
2002-09-17 06:46:46 51°13.752 2°55.699 328 6.2 323.2 10.4
2002-09-17 06:46:50 51°13.758 2°55.692 328.8 6.4 324.1 10.3
2002-09-17 06:46:56 51°13.767 2°55.682 330 6.7 325.2 10.5
2002-09-17 06:47:00 51°13.774 2°55.676 331.3 7 326.7 10.6
2002-09-17 06:47:06 51°13.785 2°55.666 332.7 7.4 328 10.8
2002-09-17 06:47:11 51°13.794 2°55.658 334.2 7.6 329.2 11
2002-09-17 06:47:15 51°13.802 2°55.651 335.7 7.9 331.1 11.2
2002-09-17 06:47:21 51°13.814 2°55.641 337.3 8.2 332.7 11.1
2002-09-17 06:47:26 51°13.824 2°55.633 338.2 8.3 334.3 11.1
2002-09-17 06:47:31 51°13.835 2°55.625 338.5 8.5 334.7 11.1
2002-09-17 06:47:35 51°13.844 2°55.619 339.7 8.6 335.1 10.6
2002-09-17 06:47:41 51°13.857 2°55.61 340.2 8.6 336.1 10.7
2002-09-17 06:47:46 51°13.867 2°55.602 339.7 8.6 336 10.7
2002-09-17 06:47:51 51°13.878 2°55.594 340 8.6 336.1 11.4
2002-09-17 06:47:55 51°13.887 2°55.588 340 8.5 336.3 10.7
2002-09-17 06:48:01 51°13.899 2°55.579 340.2 8.5 336.3 11
2002-09-17 06:48:06 51°13.91 2°55.572 340.3 8.4 336.6 11.2
2002-09-17 06:48:11 51°13.92 2°55.565 339.7 8.3 336.5 11.2
2002-09-17 06:48:15 51°13.929 2°55.559 339.7 8.2 336.4 11.3
2002-09-17 06:48:21 51°13.941 2°55.551 339.8 8.1 336.6 10.9
2002-09-17 06:48:26 51°13.951 2°55.544 339.8 8 337.2 11.2
2002-09-17 06:48:31 51°13.961 2°55.537 339.8 8 336.8 11.2
2002-09-17 06:48:35 51°13.969 2°55.531 340.3 7.9 336.9 11
2002-09-17 06:48:41 51°13.981 2°55.523 339.8 7.9 336.5 11.4
2002-09-17 06:48:46 51°13.991 2°55.516 338.8 7.8 336 10.9
2002-09-17 06:48:50 51°13.998 2°55.51 338.3 7.7 335.3 11
2002-09-17 06:48:56 51°14.01 2°55.502 338.8 7.6 335.5 11.1
2002-09-17 06:49:01 51°14.019 2°55.496 338.8 7.5 335.8 11.3
2002-09-17 06:49:06 51°14.029 2°55.489 338.7 7.4 336.2 11
2002-09-17 06:49:09 51°14.034 2°55.485 338.7 7.3 335.8 11.3
2002-09-17 06:49:15 51°14.045 2°55.477 338 7.3 335.7 11.3
2002-09-17 06:49:21 51°14.056 2°55.469 337.5 7.2 334.7 11.3
2002-09-17 06:49:26 51°14.065 2°55.462 337.7 7.2 334.2 11
2002-09-17 06:49:31 51°14.074 2°55.455 337.7 7.3 333.8 10.9
2002-09-17 06:49:35 51°14.081 2°55.449 337.2 7.3 333.6 10.4
2002-09-17 06:49:40 51°14.09 2°55.441 337.3 7.4 333.3 11.1
2002-09-17 06:49:46 51°14.101 2°55.433 338 7.5 333.4 11.1
2002-09-17 06:49:50 51°14.109 2°55.427 338.3 7.5 334 10.7
2002-09-17 06:49:56 51°14.12 2°55.418 337.8 7.6 334.2 10.7
2002-09-17 06:50:01 51°14.13 2°55.411 337.3 7.6 334.3 10.6
2002-09-17 06:50:06 51°14.139 2°55.403 336.7 7.7 333.8 10.8
2002-09-17 06:50:11 51°14.149 2°55.395 335.3 7.8 332.6 10.4
2002-09-17 06:50:16 51°14.159 2°55.387 333.7 7.9 331.3 10.9
2002-09-17 06:50:21 51°14.169 2°55.378 332.5 8 330.2 10.9
2002-09-17 06:50:26 51°14.178 2°55.369 331.8 8 329.6 11.3
2002-09-17 06:50:31 51°14.187 2°55.359 330 8 328 11.2
2002-09-17 06:50:36 51°14.196 2°55.349 328.2 8 326.2 11
2002-09-17 06:50:41 51°14.205 2°55.338 326.2 8.1 323.9 11
2002-09-17 06:50:46 51°14.214 2°55.327 324.7 8.1 322.6 11.1
2002-09-17 06:50:50 51°14.221 2°55.318 323.2 8.1 320.7 11.2
2002-09-17 06:50:56 51°14.231 2°55.304 322.2 8.2 319.7 11.1
2002-09-17 06:51:00 51°14.238 2°55.294 320.8 8.2 318.4 11.1
2002-09-17 06:51:06 51°14.248 2°55.278 319.3 8.4 316.9 11.1
2002-09-17 06:51:11 51°14.257 2°55.265 317.8 8.6 315.3 11.1
2002-09-17 06:51:16 51°14.265 2°55.251 316.8 8.8 313.7 11
2002-09-17 06:51:21 51°14.274 2°55.236 315.5 8.9 312.8 11
2002-09-17 06:51:26 51°14.282 2°55.22 312.8 9.1 310.9 11.1
2002-09-17 06:51:31 51°14.289 2°55.204 311 9.2 308.6 11.1
2002-09-17 06:51:36 51°14.297 2°55.187 309.7 9.4 306.8 11.1
2002-09-17 06:51:41 51°14.305 2°55.169 306.8 9.6 304.7 11.1
2002-09-17 06:51:46 51°14.312 2°55.15 304.3 9.8 302.1 11.2
2002-09-17 06:51:51 51°14.318 2°55.131 303.2 10 300.7 11
2002-09-17 06:51:54 51°14.322 2°55.119 303 10.1 299.4 10.8
2002-09-17 06:52:01 51°14.332 2°55.091 302 10.2 298.6 10.9
2002-09-17 06:52:06 51°14.339 2°55.071 300.7 10.3 297.9 10.9
2002-09-17 06:52:10 51°14.344 2°55.054 300.2 10.5 297 11.1
2002-09-17 06:52:15 51°14.35 2°55.033 300.2 10.5 296.9 10.4
2002-09-17 06:52:21 51°14.358 2°55.008 299.7 10.7 296.9 9.9
2002-09-17 06:52:25 51°14.363 2°54.991 297.7 10.7 296.1 9.9
2002-09-17 06:52:31 51°14.37 2°54.964 294.2 10.7 292.7 10
2002-09-17 06:52:36 51°14.374 2°54.941 290.5 10.7 289.1 10
2002-09-17 06:52:41 51°14.378 2°54.918 287.2 10.8 285.7 10.2
2002-09-17 06:52:46 51°14.381 2°54.894 285.3 10.9 283.8 10.3
2002-09-17 06:52:51 51°14.384 2°54.871 284.2 11 282.6 10.3
2002-09-17 06:52:56 51°14.388 2°54.846 283.3 11 281.7 10.2
2002-09-17 06:53:01 51°14.39 2°54.822 282.8 11 280.5 10.3
2002-09-17 06:53:06 51°14.392 2°54.797 281.8 11 279.4 10.3
2002-09-17 06:53:11 51°14.394 2°54.773 280.8 11.1 278.3 10.3
2002-09-17 06:53:16 51°14.396 2°54.749 278.8 11.1 276.9 10.3
2002-09-17 06:53:19 51°14.396 2°54.734 277 11.1 274.8 10.4
2002-09-17 06:53:26 51°14.397 2°54.7 275.7 11.1 273.6 10.4
2002-09-17 06:53:31 51°14.398 2°54.675 275.2 11.2 272.9 10.4
2002-09-17 06:53:35 51°14.398 2°54.654 275 11.4 272.4 10.3
2002-09-17 06:53:41 51°14.399 2°54.623 275 11.6 272 10.4
2002-09-17 06:53:46 51°14.4 2°54.597 275.3 11.7 272.2 10.2
2002-09-17 06:53:50 51°14.4 2°54.576 274.5 11.9 271.6 10.4
2002-09-17 06:53:56 51°14.4 2°54.544 273 12 270.6 10.4
2002-09-17 06:54:01 51°14.398 2°54.518 269.3 12 267.6 10.3
2002-09-17 06:54:06 51°14.396 2°54.492 264.8 12 263.4 10.2
2002-09-17 06:54:11 51°14.391 2°54.466 259.5 12 259.4 10.2
2002-09-17 06:54:15 51°14.387 2°54.445 255.2 12.1 254.3 9.9
2002-09-17 06:54:21 51°14.379 2°54.415 251 12.2 249.6 10.1
2002-09-17 06:54:26 51°14.372 2°54.39 248 12.4 246.5 10.1
2002-09-17 06:54:30 51°14.366 2°54.37 246 12.5 244.4 10
2002-09-17 06:54:37 51°14.354 2°54.335 244.7 12.6 243.3 9.8
2002-09-17 06:54:41 51°14.348 2°54.315 244.8 12.8 242.4 10
2002-09-17 06:54:46 51°14.34 2°54.289 245.3 12.8 243.4 9.8
2002-09-17 06:54:51 51°14.332 2°54.264 246 12.9 243 9.8
2002-09-17 06:54:55 51°14.326 2°54.243 246.3 13 244.3 9.9
2002-09-17 06:55:01 51°14.315 2°54.212 245.2 13 243 9.8
2002-09-17 06:55:06 51°14.307 2°54.186 244.7 13.1 242.7 9.8
2002-09-17 06:55:11 51°14.298 2°54.161 244.2 13.1 241.7 9.8
2002-09-17 06:55:16 51°14.289 2°54.136 242.5 13.1 240.8 9.8
2002-09-17 06:55:21 51°14.281 2°54.11 242.8 13.2 241 9.8
2002-09-17 06:55:26 51°14.271 2°54.085 242.7 13.2 240 9.7
2002-09-17 06:55:31 51°14.262 2°54.06 242 13.1 240.3 9.8
2002-09-17 06:55:36 51°14.253 2°54.035 242.7 13.1 239.9 9.8
2002-09-17 06:55:41 51°14.244 2°54.009 242.3 13.2 240 9.7
2002-09-17 06:55:46 51°14.235 2°53.984 243.2 13.2 240.2 9.8
2002-09-17 06:55:51 51°14.226 2°53.959 242.3 13.2 240.2 9.7
2002-09-17 06:55:55 51°14.218 2°53.938 242.2 13.2 239.7 9.8
2002-09-17 06:56:01 51°14.207 2°53.908 241.2 13.2 239.3 9.8
2002-09-17 06:56:06 51°14.198 2°53.884 241.2 13.2 238.4 9.8
2002-09-17 06:56:11 51°14.188 2°53.86 240.5 13.3 238.5 9.7
2002-09-17 06:56:16 51°14.179 2°53.834 241.3 13.3 238.6 9.7
2002-09-17 06:56:21 51°14.168 2°53.81 240.2 13.2 237.7 9.7
2002-09-17 06:56:26 51°14.16 2°53.784 240 13.2 238.7 9.8
2002-09-17 06:56:30 51°14.151 2°53.766 240.2 13.2 237.4 9.9
2002-09-17 06:56:36 51°14.14 2°53.735 239.3 13.2 237.9 9.8
2002-09-17 06:56:41 51°14.129 2°53.711 239.8 13.3 236.4 9.9
2002-09-17 06:56:46 51°14.12 2°53.686 239.8 13.3 237.9 9.9
2002-09-17 06:56:49 51°14.113 2°53.671 241.2 13.3 237.7 10
2002-09-17 06:56:55 51°14.103 2°53.64 242.7 13.2 240.2 9.9
2002-09-17 06:57:01 51°14.091 2°53.611 241.5 13.2 238.5 9.9
2002-09-17 06:57:06 51°14.083 2°53.584 243.2 13.3 241.2 9.9
2002-09-17 06:57:11 51°14.072 2°53.56 242.5 13.3 239.5 10
2002-09-17 06:57:16 51°14.065 2°53.533 243.5 13.3 241.6 10
2002-09-17 06:57:21 51°14.055 2°53.508 243 13.2 240.7 10.1
2002-09-17 06:57:26 51°14.046 2°53.481 243.8 13.3 241.1 10.1
2002-09-17 06:57:31 51°14.037 2°53.456 244.3 13.3 241.3 10
2002-09-17 06:57:35 51°14.03 2°53.435 244.2 13.3 241.5 10
2002-09-17 06:57:41 51°14.019 2°53.403 245.2 13.3 242.1 10.1
2002-09-17 06:57:46 51°14.011 2°53.377 243.8 13.3 241.9 10.1
2002-09-17 06:57:51 51°14.002 2°53.351 244.8 13.3 242 10.1
2002-09-17 06:57:56 51°13.993 2°53.326 244.5 13.3 242.1 10.2
2002-09-17 06:58:01 51°13.985 2°53.299 244.7 13.3 242.1 10.3
2002-09-17 06:58:06 51°13.976 2°53.274 244.5 13.3 241.9 10.3
2002-09-17 06:58:11 51°13.968 2°53.247 244.7 13.3 242.3 10.3
2002-09-17 06:58:15 51°13.96 2°53.227 244.8 13.3 241.5 10.1
2002-09-17 06:58:21 51°13.95 2°53.196 244.3 13.3 242.4 10.3
2002-09-17 06:58:26 51°13.941 2°53.17 244.2 13.2 241.7 10.4
2002-09-17 06:58:31 51°13.933 2°53.144 245.2 13.3 242.1 10
2002-09-17 06:58:36 51°13.924 2°53.119 244 13.3 241.9 10.5
2002-09-17 06:58:41 51°13.916 2°53.092 245 13.3 242.3 10.4
2002-09-17 06:58:46 51°13.907 2°53.066 245.3 13.3 242.5 10.5
2002-09-17 06:58:51 51°13.898 2°53.04 244.7 13.3 242.3 10.5
2002-09-17 06:58:55 51°13.891 2°53.019 244.8 13.4 241.8 10.6
2002-09-17 06:59:01 51°13.882 2°52.988 244.7 13.3 243.1 10.6
2002-09-17 06:59:06 51°13.872 2°52.962 245 13.3 241.5 10.6
2002-09-17 06:59:11 51°13.865 2°52.935 245.5 13.3 243.4 10.8
2002-09-17 06:59:17 51°13.854 2°52.905 244.2 13.3 241.6 10.7
2002-09-17 06:59:21 51°13.848 2°52.883 244.7 13.3 243.1 10.7
2002-09-17 06:59:26 51°13.838 2°52.858 244.2 13.3 241.6 10.8
2002-09-17 06:59:31 51°13.83 2°52.831 244.3 13.3 242.9 10.8
2002-09-17 06:59:35 51°13.822 2°52.812 243.8 13.3 240.2 10.8
2002-09-17 06:59:41 51°13.812 2°52.78 243.5 13.3 242.5 10.8
2002-09-17 06:59:46 51°13.803 2°52.755 244 13.3 240.7 10.8
2002-09-17 06:59:51 51°13.794 2°52.729 243.7 13.3 241.5 10.9
2002-09-17 06:59:54 51°13.788 2°52.713 245.2 13.3 242.3 10.9
2002-09-17 07:00:01 51°13.776 2°52.677 244.5 13.3 241.8 10.9
2002-09-17 07:00:06 51°13.769 2°52.65 244.2 13.3 242.3 10.9
2002-09-17 07:00:11 51°13.759 2°52.625 244.3 13.3 241.6 11
2002-09-17 07:00:14 51°13.755 2°52.609 244.7 13.3 243.1 11
2002-09-17 07:00:21 51°13.742 2°52.573 244.8 13.3 241.7 11
2002-09-17 07:00:26 51°13.734 2°52.546 244 13.3 243 10.9
2002-09-17 07:00:31 51°13.725 2°52.521 245 13.3 241 10.9
2002-09-17 07:00:35 51°13.719 2°52.499 243.7 13.3 242.7 10.9
2002-09-17 07:00:41 51°13.708 2°52.468 245.3 13.3 241.9 10.9
2002-09-17 07:00:46 51°13.698 2°52.443 243.7 13.3 242.8 11
2002-09-17 07:00:49 51°13.693 2°52.428 244.2 13.3 242.5 11
2002-09-17 07:00:58 51°13.678 2°52.381 244.3 13.3 240.9 11.1
2002-09-17 07:01:03 51°13.67 2°52.354 245 13.4 242.9 11.2
2002-09-17 07:01:08 51°13.661 2°52.328 244.7 13.3 242.3 11.2
2002-09-17 07:01:13 51°13.653 2°52.302 244.5 13.3 242.4 11.2
2002-09-17 07:01:18 51°13.644 2°52.276 244.5 13.4 242.3 11.2
2002-09-17 07:01:23 51°13.635 2°52.25 244.5 13.4 242 11.3
2002-09-17 07:01:27 51°13.628 2°52.229 244.8 13.4 242 11.2
2002-09-17 07:01:33 51°13.618 2°52.198 244.3 13.4 242.4 11.1
2002-09-17 07:01:38 51°13.609 2°52.171 244.5 13.4 241.6 11.3
2002-09-17 07:01:43 51°13.601 2°52.145 244.8 13.4 242.8 11.2
2002-09-17 07:01:47 51°13.594 2°52.125 244.3 13.4 241.9 11.2
2002-09-17 07:01:53 51°13.584 2°52.093 244.8 13.4 242.3 11.3
2002-09-17 07:01:58 51°13.575 2°52.067 244.3 13.4 242.3 11.3
2002-09-17 07:02:03 51°13.566 2°52.041 244.3 13.4 242.2 11.2
2002-09-17 07:02:07 51°13.559 2°52.02 244.8 13.4 241.5 11.3
2002-09-17 07:02:11 51°13.553 2°51.999 243.8 13.3 242 11.3
2002-09-17 07:02:18 51°13.54 2°51.963 244 13.4 241.4 11.3
2002-09-17 07:02:23 51°13.532 2°51.937 245.3 13.4 242.4 11.4
2002-09-17 07:02:27 51°13.525 2°51.916 244 13.4 241.7 11.3
2002-09-17 07:02:33 51°13.515 2°51.884 244.8 13.4 242.5 11.3
2002-09-17 07:02:38 51°13.506 2°51.858 245 13.4 242.4 11.3
2002-09-17 07:02:43 51°13.497 2°51.832 244 13.3 242.5 11.3
2002-09-17 07:02:47 51°13.49 2°51.811 245 13.4 241.6 11.4
2002-09-17 07:02:53 51°13.48 2°51.78 244.7 13.4 242.3 11.2
2002-09-17 07:02:58 51°13.471 2°51.753 244.7 13.4 242.1 11.3
2002-09-17 07:03:03 51°13.462 2°51.727 245.2 13.4 242.9 11.3
2002-09-17 07:03:08 51°13.453 2°51.701 243.7 13.4 241.8 11.3
2002-09-17 07:03:14 51°13.443 2°51.669 245.2 13.5 242.5 11.3
2002-09-17 07:03:18 51°13.436 2°51.648 244.3 13.4 242.6 11.3
2002-09-17 07:03:23 51°13.428 2°51.622 245 13.4 242.3 11.3
2002-09-17 07:03:27 51°13.421 2°51.6 245.2 13.4 242.9 11.3
2002-09-17 07:03:33 51°13.41 2°51.569 244.7 13.4 242.2 11.3
2002-09-17 07:03:38 51°13.402 2°51.543 245.2 13.3 242.6 11.3
2002-09-17 07:03:43 51°13.393 2°51.517 243.7 13.4 241.6 11.4
2002-09-17 07:03:48 51°13.385 2°51.49 245 13.4 242.6 11.4
2002-09-17 07:03:53 51°13.375 2°51.465 244 13.4 241.3 11.4
2002-09-17 07:03:58 51°13.368 2°51.438 244.8 13.4 242.6 11.4
2002-09-17 07:04:03 51°13.357 2°51.412 244.2 13.4 241.7 11.4
2002-09-17 07:04:07 51°13.351 2°51.39 244.5 13.5 242.8 11.4
2002-09-17 07:04:13 51°13.341 2°51.36 244.3 13.4 242 11.4
2002-09-17 07:04:18 51°13.332 2°51.333 245.2 13.5 242.5 11.4
2002-09-17 07:04:23 51°13.323 2°51.307 244.8 13.5 242.7 11.4
2002-09-17 07:04:26 51°13.318 2°51.291 244.5 13.5 241.9 11.4
2002-09-17 07:04:33 51°13.307 2°51.252 245.5 13.7 243.6 11.5
2002-09-17 07:04:38 51°13.297 2°51.226 244.5 13.7 241.9 11.4
2002-09-17 07:04:43 51°13.289 2°51.198 245.3 13.8 243.4 11.5
2002-09-17 07:04:48 51°13.279 2°51.171 244.8 13.9 242.2 11.5
2002-09-17 07:04:53 51°13.271 2°51.144 244.7 14 242.5 11.5
2002-09-17 07:04:58 51°13.261 2°51.116 244 14.1 241.6 11.5
2002-09-17 07:05:03 51°13.252 2°51.088 244.5 14.1 242.1 11.5
2002-09-17 07:05:07 51°13.244 2°51.067 243.5 14.1 241.5 11.5
2002-09-17 07:05:13 51°13.233 2°51.033 243.8 14.3 241.9 11.5
2002-09-17 07:05:18 51°13.224 2°51.005 245 14.3 242.3 11.6
2002-09-17 07:05:22 51°13.217 2°50.983 244.7 14.3 242.6 11.6
2002-09-17 07:05:27 51°13.208 2°50.955 245.5 14.2 242.8 11.7
2002-09-17 07:05:34 51°13.195 2°50.916 244.5 14.3 242.9 11.6
2002-09-17 07:05:38 51°13.188 2°50.892 245.5 14.4 242.9 11.6
2002-09-17 07:05:43 51°13.179 2°50.865 245.5 14.3 243 11.7
2002-09-17 07:05:48 51°13.169 2°50.837 244.2 14.2 241.7 11.7
2002-09-17 07:05:53 51°13.161 2°50.808 245 14.3 243.1 11.7
2002-09-17 07:05:58 51°13.151 2°50.781 243.8 14.3 241.4 11.8
2002-09-17 07:06:02 51°13.144 2°50.757 245.5 14.4 243.5 11.8
2002-09-17 07:06:08 51°13.132 2°50.725 244.3 14.3 241.9 11.8
2002-09-17 07:06:13 51°13.124 2°50.696 244.7 14.3 243.2 11.8
2002-09-17 07:06:18 51°13.114 2°50.669 244.8 14.3 242.2 11.9
2002-09-17 07:06:23 51°13.106 2°50.64 245.3 14.3 243 11.9
2002-09-17 07:06:28 51°13.096 2°50.613 244.7 14.2 242.4 11.9
2002-09-17 07:06:33 51°13.087 2°50.584 244.5 14.2 242.4 11.9
2002-09-17 07:06:38 51°13.078 2°50.556 244.8 14.2 242.7 11.9
2002-09-17 07:06:43 51°13.069 2°50.529 243.8 14.2 241.8 12
2002-09-17 07:06:47 51°13.062 2°50.506 244.5 14.2 242.4 11.9
2002-09-17 07:06:53 51°13.05 2°50.473 244.7 14.2 242.3 11.9
2002-09-17 07:06:58 51°13.041 2°50.445 244.2 14.3 242.4 11.9
2002-09-17 07:07:03 51°13.032 2°50.417 244.7 14.2 242.1 12
2002-09-17 07:07:07 51°13.025 2°50.395 244.3 14.1 242 11.7
2002-09-17 07:07:13 51°13.014 2°50.362 244.5 14.2 241.9 11.9
2002-09-17 07:07:18 51°13.004 2°50.334 244.3 14.2 241.9 12
2002-09-17 07:07:23 51°12.995 2°50.307 244 14.2 241.7 12
2002-09-17 07:07:28 51°12.985 2°50.28 243.2 14.1 241 12
2002-09-17 07:07:33 51°12.976 2°50.252 243.8 14.2 240.9 12
2002-09-17 07:07:38 51°12.967 2°50.224 244 14.2 241.9 12
2002-09-17 07:07:43 51°12.957 2°50.197 244.3 14.2 241.1 12
2002-09-17 07:07:48 51°12.948 2°50.169 244.3 14.1 242.2 12
2002-09-17 07:07:53 51°12.939 2°50.142 243.8 14.1 241.2 12.1
2002-09-17 07:07:58 51°12.93 2°50.115 245.2 14.1 242.4 12.1
2002-09-17 07:08:03 51°12.92 2°50.088 244.2 14.1 241.1 12.1
2002-09-17 07:08:07 51°12.913 2°50.065 244.3 14.1 242.7 12.1
2002-09-17 07:08:13 51°12.902 2°50.032 244.5 14.2 241.7 12.1
2002-09-17 07:08:18 51°12.893 2°50.005 244.8 14.2 241.9 12.2
2002-09-17 07:08:23 51°12.884 2°49.977 244 14.1 242.2 12.2
2002-09-17 07:08:27 51°12.876 2°49.956 244.3 14.1 241.6 12.2
2002-09-17 07:08:33 51°12.865 2°49.923 243.5 14.1 241.4 12.2
2002-09-17 07:08:38 51°12.855 2°49.895 243.8 14.2 241.4 12.2
2002-09-17 07:08:43 51°12.846 2°49.868 244.8 14.2 241.6 12.2
2002-09-17 07:08:48 51°12.837 2°49.84 244.2 14.1 242 12.2
2002-09-17 07:08:53 51°12.827 2°49.813 244.3 14.1 241.5 12.3
2002-09-17 07:08:58 51°12.818 2°49.785 244.5 14.1 242.1 12.2
2002-09-17 07:09:03 51°12.809 2°49.758 244.2 14.1 241.7 12.2
2002-09-17 07:09:07 51°12.801 2°49.736 244.2 14.1 241.5 12.2
2002-09-17 07:09:13 51°12.791 2°49.703 243.8 14.1 241.7 12.3
2002-09-17 07:09:18 51°12.781 2°49.676 244 14.1 241.3 12.2
2002-09-17 07:09:23 51°12.772 2°49.649 244 14.1 241.5 12.3
2002-09-17 07:09:29 51°12.76 2°49.616 243.7 14.1 241.4 12.2
2002-09-17 07:09:34 51°12.751 2°49.588 244.2 14.1 241.4 12.3
2002-09-17 07:09:38 51°12.744 2°49.566 244.5 14.1 242 12.3
2002-09-17 07:09:43 51°12.735 2°49.539 245.2 14.1 241.9 12.3
2002-09-17 07:09:47 51°12.728 2°49.517 244.3 14 242.6 12.4
2002-09-17 07:09:53 51°12.717 2°49.484 244.5 14.1 241.6 12.3
2002-09-17 07:09:58 51°12.708 2°49.457 245.3 14.1 242.6 12.4
2002-09-17 07:10:03 51°12.699 2°49.429 244.7 14.1 242.2 12.4
2002-09-17 07:10:07 51°12.691 2°49.407 245 14.2 242.3 12.3
2002-09-17 07:10:13 51°12.681 2°49.373 244.8 14.2 242.8 12.2
2002-09-17 07:10:18 51°12.671 2°49.346 244.8 14.1 242.3 12.2
2002-09-17 07:10:23 51°12.662 2°49.318 244.5 14.1 242.2 12.4
2002-09-17 07:10:27 51°12.654 2°49.296 244.8 14.2 242 12.3
2002-09-17 07:10:33 51°12.645 2°49.262 245 14.2 243.2 12.5
2002-09-17 07:10:38 51°12.635 2°49.235 245.2 14.2 242.6 12.5
2002-09-17 07:10:43 51°12.627 2°49.206 245.8 14.2 243.6 12.5
2002-09-17 07:10:47 51°12.619 2°49.184 246.3 14.3 243.2 12.5
2002-09-17 07:10:53 51°12.609 2°49.15 245.8 14.2 243.8 12.6
2002-09-17 07:10:58 51°12.6 2°49.122 245.7 14.2 243.1 12.6
2002-09-17 07:11:03 51°12.591 2°49.094 245.8 14.1 243.8 12.5
2002-09-17 07:11:07 51°12.583 2°49.072 245.3 14.1 242.5 12.6
2002-09-17 07:11:13 51°12.574 2°49.038 245.2 14.1 243.6 12.6
2002-09-17 07:11:18 51°12.564 2°49.011 244.7 14.1 241.8 12.6
2002-09-17 07:11:23 51°12.555 2°48.983 245.5 14.2 243.6 12.6
2002-09-17 07:11:28 51°12.546 2°48.954 245.3 14.1 242.9 12.7
2002-09-17 07:11:33 51°12.537 2°48.927 245 14.1 242.7 12.7
2002-09-17 07:11:38 51°12.528 2°48.899 244.7 14.1 242.8 12.7
2002-09-17 07:11:43 51°12.519 2°48.871 244.5 14.2 242.2 12.7
2002-09-17 07:11:45 51°12.515 2°48.86 244.2 14.1 242.3 12.7
2002-09-17 07:11:53 51°12.5 2°48.816 244.5 14.1 241.6 12.7
2002-09-17 07:11:58 51°12.491 2°48.789 243.7 14.1 242.1 12.7
2002-09-17 07:12:03 51°12.482 2°48.761 243.8 14.1 241.5 12.6
2002-09-17 07:12:07 51°12.474 2°48.739 244.5 14.2 241.7 12.8
2002-09-17 07:12:13 51°12.463 2°48.706 244 14.2 241.9 12.9
2002-09-17 07:12:18 51°12.454 2°48.679 244.5 14.1 242.2 12.8
2002-09-17 07:12:23 51°12.444 2°48.651 244.2 14.1 241.2 12.8
2002-09-17 07:12:27 51°12.438 2°48.629 244.3 14.1 242.7 12.8
2002-09-17 07:12:33 51°12.426 2°48.596 244.7 14.1 242.4 12.9
2002-09-17 07:12:38 51°12.417 2°48.568 244.3 14.1 242.3 12.8
2002-09-17 07:12:43 51°12.408 2°48.54 245.5 14.2 242.5 12.8
2002-09-17 07:12:47 51°12.402 2°48.518 244.8 14.1 243.3 12.9
2002-09-17 07:12:54 51°12.389 2°48.479 244.8 14.1 242.8 12.9
2002-09-17 07:12:58 51°12.381 2°48.457 244.7 14.1 242.2 12.9
2002-09-17 07:13:03 51°12.372 2°48.429 244.8 14.1 242.6 12.7
2002-09-17 07:13:08 51°12.363 2°48.402 245 14 242.9 12.9
2002-09-17 07:13:13 51°12.354 2°48.374 244.8 14 242.4 12.9
2002-09-17 07:13:18 51°12.345 2°48.347 244.7 14.1 242.4 12.9
2002-09-17 07:13:23 51°12.336 2°48.319 244.5 14.1 242.3 12.9
2002-09-17 07:13:27 51°12.328 2°48.297 244.5 14.1 242.1 12.9
2002-09-17 07:13:33 51°12.318 2°48.264 245 14.1 242.7 13
2002-09-17 07:13:38 51°12.308 2°48.237 244.2 14 241.8 13
2002-09-17 07:13:43 51°12.299 2°48.21 243.8 14 242 13
2002-09-17 07:13:47 51°12.291 2°48.188 244 14.1 241.1 13
2002-09-17 07:13:53 51°12.281 2°48.154 244.5 14.1 242.7 13
2002-09-17 07:13:58 51°12.271 2°48.128 243.3 14 240.8 13
2002-09-17 07:14:03 51°12.262 2°48.099 244.8 14.1 242.2 13.1
2002-09-17 07:14:07 51°12.255 2°48.078 244 14 242.6 13
2002-09-17 07:14:14 51°12.242 2°48.04 243.8 14.1 241.5 13.1
2002-09-17 07:14:18 51°12.236 2°48.018 245.2 14.1 242.7 13.1
2002-09-17 07:14:23 51°12.225 2°47.991 243.2 14.1 241.2 13.1
2002-09-17 07:14:28 51°12.218 2°47.962 245.3 14.1 243.3 13
2002-09-17 07:14:33 51°12.208 2°47.936 244.5 14.1 242.3 13.1
2002-09-17 07:14:38 51°12.199 2°47.907 244.7 14.1 242.6 13.1
2002-09-17 07:14:43 51°12.19 2°47.88 244.5 14.1 242.7 13.2
2002-09-17 07:14:46 51°12.184 2°47.864 243.5 14.1 242 13.1
2002-09-17 07:14:51 51°12.175 2°47.836 245.3 14.2 242.3 13.1
2002-09-17 07:14:58 51°12.163 2°47.797 243.7 14.1 242.6 13
2002-09-17 07:15:03 51°12.153 2°47.769 244.7 14.1 241.3 13
2002-09-17 07:15:07 51°12.147 2°47.746 245.2 14.1 243.9 13.1
2002-09-17 07:15:14 51°12.134 2°47.708 244 14.1 242.1 13.1
2002-09-17 07:15:18 51°12.127 2°47.686 244.8 14.1 242.6 13.2
2002-09-17 07:15:23 51°12.118 2°47.658 244.7 14.1 242.6 13.1
2002-09-17 07:15:28 51°12.108 2°47.631 244.3 14.1 242.3 13
2002-09-17 07:15:33 51°12.099 2°47.603 244.3 14.2 242.4 13.3
2002-09-17 07:15:38 51°12.09 2°47.576 244.5 14.2 242.4 13.2
2002-09-17 07:15:43 51°12.081 2°47.548 244.5 14.1 242.4 13.2
2002-09-17 07:15:47 51°12.074 2°47.526 244.2 14.2 242.1 13.1
2002-09-17 07:15:53 51°12.063 2°47.492 245.5 14.2 242.7 13
2002-09-17 07:15:58 51°12.053 2°47.466 243.7 14.1 241.7 13.2
2002-09-17 07:16:03 51°12.045 2°47.437 244.2 14.1 242.8 13.2
2002-09-17 07:16:07 51°12.037 2°47.415 245.5 14.1 242.4 13.3
2002-09-17 07:16:13 51°12.027 2°47.382 244.2 14 242.8 13.2
2002-09-17 07:16:18 51°12.018 2°47.354 244.7 14.1 242.4 13.2
2002-09-17 07:16:23 51°12.009 2°47.327 244.5 14.1 242.8 13.3
2002-09-17 07:16:28 51°11.999 2°47.3 243.5 14.1 241.7 13.3
2002-09-17 07:16:33 51°11.99 2°47.272 245 14.2 242.4 13.1
2002-09-17 07:16:38 51°11.981 2°47.245 244.2 14.1 242.5 13.2
2002-09-17 07:16:43 51°11.972 2°47.216 244.5 14.1 242.5 13.1
2002-09-17 07:16:48 51°11.963 2°47.189 245 14.2 242.3 13.2
2002-09-17 07:16:53 51°11.955 2°47.16 245.3 14.2 244.1 13.2
2002-09-17 07:16:58 51°11.945 2°47.133 245.7 14.1 243 13.1
2002-09-17 07:17:03 51°11.937 2°47.105 245.3 14.1 244 13
2002-09-17 07:17:07 51°11.929 2°47.083 246.2 14.1 242.8 13.1
2002-09-17 07:17:13 51°11.919 2°47.049 245 14.1 243.2 12.9
2002-09-17 07:17:18 51°11.91 2°47.021 245.2 14.1 243.1 13.2
2002-09-17 07:17:23 51°11.901 2°46.994 245.2 14 242.8 13.2
2002-09-17 07:17:27 51°11.894 2°46.972 244 14.1 242.2 13.1
2002-09-17 07:17:33 51°11.884 2°46.938 245.5 14.1 243.1 13.2
2002-09-17 07:17:38 51°11.874 2°46.911 244.3 14.1 242.4 13.1
2002-09-17 07:17:43 51°11.866 2°46.883 244.8 14.1 242.7 13.2
2002-09-17 07:17:48 51°11.856 2°46.857 244.5 14 242.3 13.2
2002-09-17 07:17:53 51°11.847 2°46.829 243.5 14 242.2 13.2
2002-09-17 07:17:58 51°11.838 2°46.801 245.2 14.1 241.9 13
2002-09-17 07:18:03 51°11.829 2°46.774 244.2 14 242.4 13.2
2002-09-17 07:18:07 51°11.821 2°46.752 244.2 14 241.8 13.2
2002-09-17 07:18:13 51°11.811 2°46.719 244.7 14.1 241.9 13.2
2002-09-17 07:18:18 51°11.801 2°46.692 244.3 14 242.1 13.2
2002-09-17 07:18:23 51°11.792 2°46.665 243.8 14 241.6 13.2
2002-09-17 07:18:27 51°11.785 2°46.643 243.8 14 241.7 13.2
2002-09-17 07:18:34 51°11.772 2°46.605 243.7 14.1 241.4 13.1
2002-09-17 07:18:38 51°11.765 2°46.583 244.5 14.1 242 13.2
2002-09-17 07:18:43 51°11.755 2°46.556 244.8 14 241.8 13.2
2002-09-17 07:18:47 51°11.748 2°46.533 243.8 13.9 242.2 13.2
2002-09-17 07:18:53 51°11.738 2°46.501 244.7 14 242.3 13.1
2002-09-17 07:18:58 51°11.727 2°46.474 244.3 14 241.4 13.1
2002-09-17 07:19:03 51°11.719 2°46.446 244.3 14.1 242.2 13.2
2002-09-17 07:19:07 51°11.712 2°46.424 244.2 14 242.1 13.2
2002-09-17 07:19:13 51°11.701 2°46.391 244 14 241.8 13.2
2002-09-17 07:19:18 51°11.692 2°46.363 244.8 14.2 242.3 13.2
2002-09-17 07:19:23 51°11.683 2°46.336 244.8 14 242.5 13.1
2002-09-17 07:19:27 51°11.675 2°46.315 243.8 14 242 13.2
2002-09-17 07:19:33 51°11.664 2°46.281 244.7 14 242.6 13.2
2002-09-17 07:19:38 51°11.655 2°46.254 244 14.1 241.9 13.1
2002-09-17 07:19:43 51°11.646 2°46.226 244.2 14.1 242.7 13.1
2002-09-17 07:19:47 51°11.639 2°46.205 243.8 13.9 241.9 13.1
2002-09-17 07:19:53 51°11.627 2°46.172 244.2 14 241.5 13
2002-09-17 07:19:58 51°11.618 2°46.144 244.8 14.2 242.4 13
2002-09-17 07:20:03 51°11.61 2°46.116 245 14.2 242.9 13
2002-09-17 07:20:06 51°11.604 2°46.1 245 14 242.4 13.1
2002-09-17 07:20:13 51°11.593 2°46.06 247.3 14 245.1 12.9
2002-09-17 07:20:18 51°11.584 2°46.032 248 14.1 245.4 12.9
2002-09-17 07:20:23 51°11.577 2°46.004 247.8 14 246.3 13
2002-09-17 07:20:28 51°11.568 2°45.976 248.3 14.1 245.7 13
2002-09-17 07:20:33 51°11.562 2°45.947 248.7 14.1 247 12.9
2002-09-17 07:20:38 51°11.553 2°45.919 248.5 14 246.3 13
2002-09-17 07:20:43 51°11.546 2°45.89 248.8 14.1 246.5 12.9
2002-09-17 07:20:47 51°11.54 2°45.867 249.3 14.1 247.5 13
2002-09-17 07:20:53 51°11.53 2°45.833 248.8 14.1 246.4 13
2002-09-17 07:20:58 51°11.523 2°45.804 249.3 14.1 247.6 13
2002-09-17 07:21:02 51°11.516 2°45.782 248.3 14.1 246 12.9
2002-09-17 07:21:08 51°11.507 2°45.747 248.8 14.1 246.8 13
2002-09-17 07:21:14 51°11.498 2°45.713 248.3 14.1 246.5 13
2002-09-17 07:21:18 51°11.491 2°45.69 248.5 14.1 245.8 13
2002-09-17 07:21:23 51°11.484 2°45.662 248.3 14 246.5 13
2002-09-17 07:21:27 51°11.477 2°45.639 247.8 14 245.9 12.9
2002-09-17 07:21:33 51°11.468 2°45.605 249.3 14.1 246.3 12.9
2002-09-17 07:21:38 51°11.461 2°45.576 248.7 14.1 247.3 12.9
2002-09-17 07:21:43 51°11.452 2°45.547 248.7 14.1 246.6 12.9
2002-09-17 07:21:47 51°11.447 2°45.524 248.5 14.1 247.3 12.9
2002-09-17 07:21:53 51°11.437 2°45.49 248.8 14.1 246.1 13
2002-09-17 07:21:57 51°11.432 2°45.467 249 14.1 247.9 12.9
2002-09-17 07:22:03 51°11.421 2°45.433 248.3 14.1 245.9 12.7
2002-09-17 07:22:07 51°11.416 2°45.409 249.8 14.2 247.8 12.9
2002-09-17 07:22:13 51°11.406 2°45.375 248.7 14.2 246.9 12.9
2002-09-17 07:22:18 51°11.399 2°45.346 248.5 14.1 247 12.9
2002-09-17 07:22:23 51°11.391 2°45.318 248.7 14.1 246.8 12.7
2002-09-17 07:22:26 51°11.386 2°45.301 248.3 14.1 246.4 12.9
2002-09-17 07:22:33 51°11.375 2°45.26 248.5 14.2 246.4 12.8
2002-09-17 07:22:38 51°11.367 2°45.231 249 14.2 246.8 12.9
2002-09-17 07:22:43 51°11.36 2°45.203 248.7 14.1 246.7 12.7
2002-09-17 07:22:47 51°11.354 2°45.18 248.8 14.1 246.9 12.8
2002-09-17 07:22:53 51°11.344 2°45.145 249 14.2 247 12.7
2002-09-17 07:22:58 51°11.337 2°45.116 249.2 14.2 247.3 12.8
2002-09-17 07:23:03 51°11.329 2°45.087 249.7 14.2 247.3 12.9
2002-09-17 07:23:07 51°11.322 2°45.065 248.8 14.1 246.9 12.8
2002-09-17 07:23:14 51°11.312 2°45.024 249.8 14.2 247.2 12.8
2002-09-17 07:23:18 51°11.306 2°45.001 249.5 14.1 247.6 12.8
2002-09-17 07:23:23 51°11.298 2°44.972 249.5 14.1 247.5 12.8
2002-09-17 07:23:26 51°11.294 2°44.955 249.5 14.1 247.6 12.8
2002-09-17 07:23:33 51°11.283 2°44.915 248.8 14.1 247.2 12.8
2002-09-17 07:23:38 51°11.274 2°44.887 247.8 14.1 245.8 12.7
2002-09-17 07:23:42 51°11.269 2°44.863 248.3 14.2 247 12.7
2002-09-17 07:23:48 51°11.259 2°44.829 249.3 14.2 246.3 12.8
2002-09-17 07:23:52 51°11.254 2°44.807 248.2 14 246.9 12.7
2002-09-17 07:23:58 51°11.243 2°44.773 247.7 14 245.5 12.7
2002-09-17 07:24:03 51°11.236 2°44.744 248.3 14.1 246.9 12.8
2002-09-17 07:24:08 51°11.227 2°44.715 249 14.3 245.8 12.6
2002-09-17 07:24:13 51°11.221 2°44.686 250.5 14.2 248.6 12.8
2002-09-17 07:24:18 51°11.213 2°44.658 249 13.9 247.4 12.7
2002-09-17 07:24:23 51°11.205 2°44.63 248.3 13.9 246.5 12.7
2002-09-17 07:24:27 51°11.2 2°44.606 249.5 14.2 247.3 12.7
2002-09-17 07:24:33 51°11.19 2°44.572 249 14.1 247.1 12.8
2002-09-17 07:24:38 51°11.183 2°44.544 248.2 14 246.8 12.8
2002-09-17 07:24:43 51°11.176 2°44.515 249.7 14 247.4 12.7
2002-09-17 07:24:47 51°11.169 2°44.492 249.5 14.1 246.8 12.7
2002-09-17 07:24:53 51°11.161 2°44.458 248.8 14 247.7 12.7
2002-09-17 07:24:58 51°11.152 2°44.43 248.2 13.9 245.9 12.7
2002-09-17 07:25:03 51°11.145 2°44.401 249 14 247.1 12.5
2002-09-17 07:25:07 51°11.139 2°44.379 248.3 14 246.2 12.4
2002-09-17 07:25:13 51°11.129 2°44.345 248 13.9 246.3 12.7
2002-09-17 07:25:18 51°11.121 2°44.317 248.8 13.9 246.2 12.5
2002-09-17 07:25:23 51°11.114 2°44.289 249.2 13.9 246.4 12.6
2002-09-17 07:25:27 51°11.108 2°44.266 248.5 13.9 246.5 12.6
2002-09-17 07:25:33 51°11.099 2°44.232 248.8 14 246.8 12.6
2002-09-17 07:25:38 51°11.091 2°44.205 248.7 13.9 246.5 12.6
2002-09-17 07:25:43 51°11.083 2°44.176 248 13.9 246.5 12.5
2002-09-17 07:25:46 51°11.078 2°44.16 248.2 13.8 245.9 12.7
2002-09-17 07:25:53 51°11.067 2°44.121 247.3 13.8 245.4 12.3
2002-09-17 07:25:58 51°11.059 2°44.092 247.7 13.9 245.5 12.4
2002-09-17 07:26:03 51°11.051 2°44.064 248.7 14.1 246.1 12.6
2002-09-17 07:26:08 51°11.043 2°44.036 248.2 14 246.4 12.7
2002-09-17 07:26:14 51°11.034 2°44.002 248.3 14 245.7 12.6
2002-09-17 07:26:18 51°11.028 2°43.98 248.2 13.9 246.8 12.6
2002-09-17 07:26:23 51°11.019 2°43.951 248.7 14.1 245.5 12.5
2002-09-17 07:26:27 51°11.014 2°43.927 249.5 14.2 248.1 12.6
2002-09-17 07:26:33 51°11.004 2°43.894 249.5 14.1 246.5 12.5
2002-09-17 07:26:38 51°10.997 2°43.865 249.2 14 248.3 12.4
2002-09-17 07:26:43 51°10.989 2°43.837 248.5 13.9 246.3 12.4
2002-09-17 07:26:47 51°10.983 2°43.814 248.5 14 247 12.4
2002-09-17 07:26:53 51°10.974 2°43.779 249.7 14.1 247 12.6
2002-09-17 07:26:58 51°10.966 2°43.752 248.8 14 247 12.6
2002-09-17 07:27:03 51°10.959 2°43.723 248.2 13.9 246.6 12.6
2002-09-17 07:27:06 51°10.954 2°43.706 248.7 14 246.5 12.5
2002-09-17 07:27:13 51°10.943 2°43.666 248.7 14 246.7 12.4
2002-09-17 07:27:18 51°10.935 2°43.638 248.7 14.1 246.6 12.5
2002-09-17 07:27:23 51°10.928 2°43.609 249.7 14 247.4 12.4
2002-09-17 07:27:26 51°10.924 2°43.592 249.8 13.9 247.9 12.4
2002-09-17 07:27:33 51°10.914 2°43.552 250.7 14 248.2 12.4
2002-09-17 07:27:37 51°10.908 2°43.528 252 14.1 249.4 12.5
2002-09-17 07:27:42 51°10.902 2°43.499 253.2 14.2 250.2 12.4
2002-09-17 07:27:47 51°10.896 2°43.47 252.8 13.9 251.2 12.5
2002-09-17 07:27:52 51°10.889 2°43.442 252.3 13.9 250 12.5
2002-09-17 07:27:58 51°10.882 2°43.405 253.2 14.1 251.8 12.3
2002-09-17 07:28:03 51°10.876 2°43.376 253.3 14.1 251.7 12.4
2002-09-17 07:28:07 51°10.87 2°43.353 254 14.1 251.2 12.5
2002-09-17 07:28:13 51°10.864 2°43.317 253.2 14 252.2 12.5
2002-09-17 07:28:18 51°10.857 2°43.288 253.8 13.9 251 12.4
2002-09-17 07:28:23 51°10.851 2°43.259 253.7 14 251.8 12.3
2002-09-17 07:28:28 51°10.845 2°43.229 253.2 14 251.2 12.5
2002-09-17 07:28:33 51°10.839 2°43.2 253.7 14.1 251.6 12.5
2002-09-17 07:28:38 51°10.832 2°43.171 253.3 14 250.8 12.6
2002-09-17 07:28:43 51°10.825 2°43.142 252 13.9 250.3 12.4
2002-09-17 07:28:47 51°10.821 2°43.118 252.8 14 251.1 12.5
2002-09-17 07:28:53 51°10.812 2°43.083 253 14.1 250.6 12.5
2002-09-17 07:28:58 51°10.806 2°43.054 252.7 14.1 250.8 12.5
2002-09-17 07:29:02 51°10.801 2°43.031 252.7 14 250.7 12.6
2002-09-17 07:29:07 51°10.794 2°43.002 252.7 14 249.9 12.6
2002-09-17 07:29:14 51°10.785 2°42.96 252.7 14.1 251 12.5
2002-09-17 07:29:18 51°10.78 2°42.937 252.8 14.1 250.5 12.5
2002-09-17 07:29:23 51°10.773 2°42.908 252.7 14.1 250.8 12.6
2002-09-17 07:29:27 51°10.768 2°42.884 252.5 14 250.6 12.6
2002-09-17 07:29:33 51°10.76 2°42.849 252.2 14.1 250 12.5
2002-09-17 07:29:38 51°10.754 2°42.82 252.5 14.1 250.8 12.6
2002-09-17 07:29:43 51°10.747 2°42.791 251.8 14.1 249.8 12.6
2002-09-17 07:29:48 51°10.741 2°42.761 251.3 14 250.8 12.5
2002-09-17 07:29:53 51°10.734 2°42.733 252.3 14.1 249.2 12.6
2002-09-17 07:29:58 51°10.728 2°42.703 252.7 14 250.9 12.6
2002-09-17 07:30:03 51°10.72 2°42.675 251.5 13.9 249 12.5
2002-09-17 07:30:08 51°10.715 2°42.645 252.3 14 251 12.5
2002-09-17 07:30:13 51°10.707 2°42.617 252.3 13.9 249.8 12.5
2002-09-17 07:30:18 51°10.701 2°42.588 251.3 13.9 250.1 12.6
2002-09-17 07:30:23 51°10.695 2°42.559 252.5 13.9 250.4 12.5
2002-09-17 07:30:28 51°10.688 2°42.531 253 13.9 250.2 12.5
2002-09-17 07:30:33 51°10.681 2°42.502 251.3 13.8 249.6 12.6
2002-09-17 07:30:38 51°10.675 2°42.473 252.8 13.9 250.3 12.6
2002-09-17 07:30:43 51°10.668 2°42.444 252.5 13.9 250.2 12.5
2002-09-17 07:30:48 51°10.662 2°42.414 253 14 251.4 12.6
2002-09-17 07:30:50 51°10.66 2°42.403 253.5 14 250.8 12.5
2002-09-17 07:30:58 51°10.65 2°42.356 252.8 13.9 251.9 12.6
2002-09-17 07:31:03 51°10.643 2°42.327 253.2 13.9 250.7 12.4
2002-09-17 07:31:07 51°10.638 2°42.304 252.8 13.9 250.9 12.6
2002-09-17 07:31:13 51°10.63 2°42.269 252.5 13.9 250.7 12.6
2002-09-17 07:31:18 51°10.624 2°42.24 252.7 13.9 250.4 12.5
2002-09-17 07:31:23 51°10.618 2°42.211 252.2 13.9 250.5 12.5
2002-09-17 07:31:28 51°10.611 2°42.182 253.2 13.9 250.8 12.6
2002-09-17 07:31:34 51°10.603 2°42.147 252.8 14 251 12.6
2002-09-17 07:31:38 51°10.599 2°42.123 253.3 14.1 251.7 12.7
2002-09-17 07:31:43 51°10.593 2°42.094 253.3 14 251.6 12.6
2002-09-17 07:31:47 51°10.588 2°42.071 253.7 14 251.8 12.4
2002-09-17 07:31:53 51°10.581 2°42.036 253.3 14 251.9 12.6
2002-09-17 07:31:58 51°10.575 2°42.006 253.8 14 252 12.5
2002-09-17 07:32:03 51°10.569 2°41.977 253.5 14 251.5 12.6
2002-09-17 07:32:07 51°10.564 2°41.954 252.2 14 251.3 12.7
2002-09-17 07:32:13 51°10.556 2°41.919 252.3 14 250.9 12.7
2002-09-17 07:32:18 51°10.55 2°41.89 252.2 13.9 250.6 12.6
2002-09-17 07:32:23 51°10.543 2°41.861 251.8 13.9 250.4 12.5
2002-09-17 07:32:28 51°10.536 2°41.832 252 14 250.5 12.7
2002-09-17 07:32:33 51°10.53 2°41.803 251.3 13.9 249.9 12.8
2002-09-17 07:32:38 51°10.523 2°41.774 251 13.9 249.9 12.7
2002-09-17 07:32:43 51°10.516 2°41.745 250.8 14 249.1 12.4
2002-09-17 07:32:48 51°10.509 2°41.716 251.3 14 249.7 12.7
2002-09-17 07:32:53 51°10.502 2°41.688 250.3 13.9 248.7 12.8
2002-09-17 07:32:58 51°10.495 2°41.66 250.2 13.9 248.7 12.7
2002-09-17 07:33:03 51°10.488 2°41.631 250.5 13.9 248.3 12.5
2002-09-17 07:33:07 51°10.482 2°41.608 250.2 13.9 248.8 12.3
2002-09-17 07:33:13 51°10.473 2°41.574 250.5 13.9 248.2 12.4
2002-09-17 07:33:18 51°10.467 2°41.545 250.8 14 249.3 12.7
2002-09-17 07:33:23 51°10.46 2°41.516 251.2 14 249.2 12.5
2002-09-17 07:33:27 51°10.455 2°41.493 251 13.9 249.5 12.7
2002-09-17 07:33:33 51°10.446 2°41.459 251.5 13.9 249.2 12.7
2002-09-17 07:33:38 51°10.439 2°41.431 251 13.8 248.9 12.4
2002-09-17 07:33:43 51°10.433 2°41.402 250.7 13.8 249.5 12.6
2002-09-17 07:33:47 51°10.427 2°41.379 251.7 13.9 249.3 12.3
2002-09-17 07:33:53 51°10.419 2°41.344 252 13.9 249.8 12.7
2002-09-17 07:33:58 51°10.413 2°41.316 251.5 13.8 250.1 12.5
2002-09-17 07:34:02 51°10.407 2°41.293 251.2 13.8 249.3 12.7
2002-09-17 07:34:07 51°10.401 2°41.264 251.3 13.9 249.5 12.5
2002-09-17 07:34:13 51°10.393 2°41.229 251.8 13.9 250 12.8
2002-09-17 07:34:18 51°10.386 2°41.201 251.8 13.9 249.6 12.7
2002-09-17 07:34:23 51°10.38 2°41.172 251.7 13.9 250 12.6
2002-09-17 07:34:27 51°10.374 2°41.149 253.3 13.9 250.7 12.8
2002-09-17 07:34:33 51°10.367 2°41.114 252.8 13.8 250.8 12.5
2002-09-17 07:34:38 51°10.362 2°41.085 253.5 13.8 252 12.7
2002-09-17 07:34:42 51°10.356 2°41.062 254 13.8 251.5 12.7
2002-09-17 07:34:47 51°10.351 2°41.033 253.3 13.8 252.3 12.7
2002-09-17 07:34:53 51°10.344 2°40.998 255 13.9 252.4 12.7
2002-09-17 07:34:58 51°10.338 2°40.969 254.5 13.9 252.9 12.5
2002-09-17 07:35:03 51°10.332 2°40.94 254.7 13.8 252.7 12.6
2002-09-17 07:35:08 51°10.326 2°40.911 254.5 13.8 252.9 12.7
2002-09-17 07:35:11 51°10.323 2°40.893 254.7 13.9 252.7 12.9
2002-09-17 07:35:18 51°10.315 2°40.852 254.3 13.9 253.1 12.8
2002-09-17 07:35:23 51°10.309 2°40.823 254.8 13.9 252.4 12.8
2002-09-17 07:35:27 51°10.305 2°40.799 254.5 13.9 253.1 12.7
2002-09-17 07:35:33 51°10.298 2°40.765 254.5 13.8 252.8 12.7
2002-09-17 07:35:38 51°10.292 2°40.736 254.7 13.8 253.1 12.8
2002-09-17 07:35:43 51°10.286 2°40.706 254.3 14 252.7 12.8
2002-09-17 07:35:47 51°10.282 2°40.682 254.8 14 253 12.9
2002-09-17 07:35:53 51°10.275 2°40.648 254.5 13.8 252.6 12.8
2002-09-17 07:35:58 51°10.269 2°40.619 254.8 13.8 252.6 12.9
2002-09-17 07:36:03 51°10.263 2°40.59 254.5 13.8 252.7 12.8
2002-09-17 07:36:08 51°10.258 2°40.56 254.5 13.9 252.9 12.8
2002-09-17 07:36:13 51°10.252 2°40.531 255.7 13.9 253.5 13
2002-09-17 07:36:18 51°10.246 2°40.502 254.5 13.9 253.1 13
2002-09-17 07:36:23 51°10.242 2°40.472 255.5 13.9 253.8 12.9
2002-09-17 07:36:28 51°10.235 2°40.444 254.5 13.7 252.6 13
2002-09-17 07:36:33 51°10.23 2°40.414 255.2 13.8 253.9 13
2002-09-17 07:36:38 51°10.224 2°40.385 255.2 13.9 252.8 13
2002-09-17 07:36:42 51°10.22 2°40.361 255.5 13.9 254.2 13
2002-09-17 07:36:47 51°10.214 2°40.332 255.2 13.8 252.8 13.1
2002-09-17 07:36:54 51°10.207 2°40.291 255.3 13.8 254.1 13.1
2002-09-17 07:36:58 51°10.202 2°40.268 254.8 13.7 252.8 13.1
2002-09-17 07:37:03 51°10.197 2°40.239 254.7 13.8 253.3 13
2002-09-17 07:37:08 51°10.191 2°40.209 254.7 13.9 252.6 12.9
2002-09-17 07:37:13 51°10.186 2°40.18 255.3 13.9 253.4 13.1
2002-09-17 07:37:18 51°10.179 2°40.152 253.8 13.7 251.8 13.1
2002-09-17 07:37:22 51°10.175 2°40.129 254.2 13.7 252.6 13.2
2002-09-17 07:37:28 51°10.168 2°40.094 253.8 13.8 252.1 13.1
2002-09-17 07:37:33 51°10.162 2°40.065 255 13.9 252.3 13.1
2002-09-17 07:37:38 51°10.157 2°40.035 255.3 13.9 253.4 13.2
2002-09-17 07:37:43 51°10.151 2°40.007 254.8 13.8 252.9 13.2
2002-09-17 07:37:47 51°10.146 2°39.983 255.2 13.8 252.9 13.1
2002-09-17 07:37:53 51°10.139 2°39.949 253.5 13.8 252.3 13.2
2002-09-17 07:37:58 51°10.133 2°39.92 253.5 13.9 251.4 13.2
2002-09-17 07:38:03 51°10.127 2°39.891 252.7 13.9 251.1 13.2
2002-09-17 07:38:08 51°10.12 2°39.862 252 13.8 250.3 13.2
2002-09-17 07:38:13 51°10.113 2°39.834 251.5 13.8 249.5 13.3
2002-09-17 07:38:18 51°10.106 2°39.805 250.8 13.7 249.1 13.3
2002-09-17 07:38:23 51°10.099 2°39.777 250.5 13.8 248.6 13.4
2002-09-17 07:38:28 51°10.092 2°39.749 249.7 13.9 248 13.2
2002-09-17 07:38:33 51°10.085 2°39.72 249.3 13.9 247.8 13.3
2002-09-17 07:38:38 51°10.077 2°39.692 248.8 13.8 247.2 13.4
2002-09-17 07:38:43 51°10.069 2°39.664 249 13.8 246.7 13.4
2002-09-17 07:38:47 51°10.063 2°39.642 248.2 13.9 246.3 13.3
2002-09-17 07:38:53 51°10.054 2°39.608 247.8 13.9 247 13.3
2002-09-17 07:38:58 51°10.046 2°39.581 248.2 13.8 245.9 13.3
2002-09-17 07:39:03 51°10.038 2°39.552 248.3 13.9 246.6 13.4
2002-09-17 07:39:07 51°10.032 2°39.53 248.2 13.8 246.4 13.4
2002-09-17 07:39:13 51°10.022 2°39.497 248.2 13.7 245.4 13.3
2002-09-17 07:39:18 51°10.015 2°39.468 248.3 13.8 247.3 13.3
2002-09-17 07:39:23 51°10.006 2°39.441 247.8 13.9 245.6 13.3
2002-09-17 07:39:28 51°9.999 2°39.412 248.7 13.9 247.2 13.5
2002-09-17 07:39:33 51°9.992 2°39.384 249.5 13.9 247.1 13.5
2002-09-17 07:39:38 51°9.985 2°39.356 249.2 13.8 247.7 13.4
2002-09-17 07:39:43 51°9.976 2°39.328 249.2 13.8 246.7 13.2
2002-09-17 07:39:48 51°9.97 2°39.299 249.8 13.9 247.9 13.4
2002-09-17 07:39:53 51°9.962 2°39.271 249.7 13.9 247.8 13.4
2002-09-17 07:39:58 51°9.955 2°39.243 249.7 13.9 247.6 13.5
2002-09-17 07:40:02 51°9.949 2°39.22 249.5 13.8 248.2 13.6
2002-09-17 07:40:08 51°9.94 2°39.186 248.7 13.9 247.2 13.6
2002-09-17 07:40:13 51°9.933 2°39.158 250 13.9 247.7 13.5
2002-09-17 07:40:18 51°9.925 2°39.13 248.5 13.9 247 13.7
2002-09-17 07:40:23 51°9.918 2°39.101 249.5 13.9 247.7 13.5
2002-09-17 07:40:28 51°9.91 2°39.073 249.7 13.9 247.5 13.7
2002-09-17 07:40:33 51°9.903 2°39.044 249 13.9 247.8 13.7
2002-09-17 07:40:38 51°9.895 2°39.017 249.3 13.9 247.2 13.5
2002-09-17 07:40:43 51°9.888 2°38.988 248.8 13.8 247.7 13.7
2002-09-17 07:40:47 51°9.882 2°38.966 249.2 13.9 247.1 13.7
2002-09-17 07:40:53 51°9.874 2°38.931 249.3 13.9 248.3 13.7
2002-09-17 07:40:58 51°9.866 2°38.904 249 13.8 247.1 13.6
2002-09-17 07:41:03 51°9.859 2°38.875 249.3 13.8 247.5 13.8
2002-09-17 07:41:07 51°9.853 2°38.853 249.2 13.9 247.2 13.7
2002-09-17 07:41:13 51°9.844 2°38.819 248.8 13.8 247.4 13.7
2002-09-17 07:41:18 51°9.836 2°38.791 249 13.9 246.9 13.6
2002-09-17 07:41:23 51°9.829 2°38.762 250.2 14 248.1 13.8
2002-09-17 07:41:28 51°9.822 2°38.734 250 13.8 248.4 13.8
2002-09-17 07:41:33 51°9.815 2°38.707 248.8 13.7 247.4 13.8
2002-09-17 07:41:38 51°9.808 2°38.678 249.7 13.9 247.6 13.7
2002-09-17 07:41:43 51°9.8 2°38.65 248.5 13.8 247 13.9
2002-09-17 07:41:48 51°9.792 2°38.623 247.3 13.7 246.1 13.7
2002-09-17 07:41:53 51°9.784 2°38.595 248.3 13.8 245.9 13.8
2002-09-17 07:41:58 51°9.776 2°38.567 247.5 13.8 246.6 13.9
2002-09-17 07:42:03 51°9.768 2°38.54 247.3 13.7 245.5 14
2002-09-17 07:42:07 51°9.763 2°38.517 248.5 13.8 246.5 13.7
2002-09-17 07:42:13 51°9.753 2°38.483 248.5 13.9 246.8 13.8
2002-09-17 07:42:18 51°9.746 2°38.455 249.2 13.9 247.1 13.9
2002-09-17 07:42:23 51°9.738 2°38.427 248.8 13.8 247.1 13.9
2002-09-17 07:42:27 51°9.732 2°38.405 249 13.8 247.2 14
2002-09-17 07:42:33 51°9.723 2°38.371 249 13.8 247.1 14
2002-09-17 07:42:38 51°9.716 2°38.343 249.2 13.8 247.5 14.1
2002-09-17 07:42:42 51°9.71 2°38.32 249 13.8 247.1 14.1
2002-09-17 07:42:47 51°9.703 2°38.292 250 13.9 247.6 14.2
2002-09-17 07:42:53 51°9.694 2°38.259 248.2 13.7 247.2 14.2
2002-09-17 07:42:58 51°9.686 2°38.231 248 13.7 246.3 14.2
2002-09-17 07:43:03 51°9.678 2°38.203 249 13.9 246.7 14
2002-09-17 07:43:08 51°9.671 2°38.175 247.8 13.8 247 14.2
2002-09-17 07:43:12 51°9.664 2°38.154 248 13.7 245.6 14.2
2002-09-17 07:43:18 51°9.655 2°38.12 248.2 13.7 246.3 14.2
2002-09-17 07:43:23 51°9.647 2°38.092 248.2 13.8 246.1 14.2
2002-09-17 07:43:28 51°9.64 2°38.064 249.3 13.8 247 14.3
2002-09-17 07:43:33 51°9.633 2°38.037 248.3 13.6 247 14.2
2002-09-17 07:43:38 51°9.625 2°38.009 248 13.6 245.9 14.2
2002-09-17 07:43:43 51°9.618 2°37.981 249.3 13.8 246.8 14.3
2002-09-17 07:43:48 51°9.61 2°37.953 248 13.6 246.8 14.2
2002-09-17 07:43:54 51°9.601 2°37.92 248.2 13.7 246.3 14.3
2002-09-17 07:43:58 51°9.595 2°37.898 248.8 13.8 246.7 14.3
2002-09-17 07:44:03 51°9.587 2°37.87 247.8 13.7 246 14.1
2002-09-17 07:44:07 51°9.581 2°37.848 248 13.7 246.4 14.2
2002-09-17 07:44:13 51°9.571 2°37.815 247.8 13.8 245.6 14.4
2002-09-17 07:44:18 51°9.564 2°37.786 248.2 13.8 246.7 14.3
2002-09-17 07:44:23 51°9.556 2°37.759 247.7 13.7 245.9 14.4
2002-09-17 07:44:27 51°9.55 2°37.737 247.5 13.7 246.1 14.4
2002-09-17 07:44:33 51°9.54 2°37.704 248 13.9 245.6 14.4
2002-09-17 07:44:38 51°9.533 2°37.676 248 13.8 246.5 14.4
2002-09-17 07:44:43 51°9.524 2°37.648 247.8 13.7 245.9 14.3
2002-09-17 07:44:47 51°9.519 2°37.626 248.2 13.7 246.4 14.5
2002-09-17 07:44:53 51°9.509 2°37.592 248.8 13.9 246.1 14.4
2002-09-17 07:44:58 51°9.502 2°37.564 248.5 13.8 247.5 14.5
2002-09-17 07:45:02 51°9.495 2°37.543 247.5 13.7 246.1 14.5
2002-09-17 07:45:07 51°9.488 2°37.514 248 13.8 246.1 14.5
2002-09-17 07:45:13 51°9.479 2°37.481 248.2 13.8 246 14.5
2002-09-17 07:45:18 51°9.471 2°37.454 248 13.8 246.1 14.6
2002-09-17 07:45:23 51°9.463 2°37.426 248.3 13.8 246.2 14.6
2002-09-17 07:45:26 51°9.459 2°37.409 248.5 13.8 246.6 14.6
2002-09-17 07:45:33 51°9.448 2°37.37 248.2 13.8 246.2 14.7
2002-09-17 07:45:37 51°9.442 2°37.347 248.7 13.8 246.9 14.7
2002-09-17 07:45:43 51°9.432 2°37.314 248.5 13.9 246.1 14.7
2002-09-17 07:45:48 51°9.425 2°37.285 248.8 13.9 247.2 14.7
2002-09-17 07:45:53 51°9.417 2°37.258 248.2 13.8 246.4 14.9
2002-09-17 07:45:58 51°9.41 2°37.229 248.8 13.9 246.7 14.8
2002-09-17 07:46:03 51°9.402 2°37.2 249.5 14.1 247 14.9
2002-09-17 07:46:07 51°9.397 2°37.178 249.7 13.9 248.4 14.9
2002-09-17 07:46:14 51°9.385 2°37.139 248 13.7 246.1 14.9
2002-09-17 07:46:18 51°9.38 2°37.116 248.8 13.9 247.7 15
2002-09-17 07:46:23 51°9.372 2°37.088 249.2 13.9 247.2 15.1
2002-09-17 07:46:27 51°9.366 2°37.066 248.5 13.8 246.2 15.1
2002-09-17 07:46:33 51°9.357 2°37.032 248.3 13.8 247.3 15.1
2002-09-17 07:46:38 51°9.349 2°37.004 249.7 13.8 246.5 15.2
2002-09-17 07:46:42 51°9.344 2°36.981 249.3 13.8 247.5 15.3
2002-09-17 07:46:47 51°9.336 2°36.954 248.8 13.7 246.3 15.3
2002-09-17 07:46:53 51°9.327 2°36.921 248.3 13.7 246.9 15.3
2002-09-17 07:46:58 51°9.319 2°36.893 247.7 13.8 245 15.2
2002-09-17 07:47:03 51°9.312 2°36.865 248.5 13.8 246.3 15.5
2002-09-17 07:47:08 51°9.303 2°36.838 247.2 13.7 245.5 15.5
2002-09-17 07:47:14 51°9.294 2°36.804 248.5 13.8 245.8 15.5
2002-09-17 07:47:18 51°9.288 2°36.782 248.5 13.9 246.7 15.6
2002-09-17 07:47:23 51°9.28 2°36.754 248.3 13.8 246.3 15.7
2002-09-17 07:47:27 51°9.274 2°36.731 248.8 13.9 247.1 15.7
2002-09-17 07:47:33 51°9.265 2°36.697 249.8 13.9 247.2 15.7
2002-09-17 07:47:38 51°9.257 2°36.669 249.3 13.9 247.4 15.7
2002-09-17 07:47:43 51°9.251 2°36.64 249.5 13.9 248.3 15.8
2002-09-17 07:47:47 51°9.244 2°36.618 249.2 13.9 247.2 15.8
2002-09-17 07:47:54 51°9.234 2°36.578 249.8 14 247.4 15.9
2002-09-17 07:47:58 51°9.228 2°36.556 248.7 13.9 248 15.9
2002-09-17 07:48:03 51°9.22 2°36.528 248.7 13.8 246.3 16
2002-09-17 07:48:07 51°9.215 2°36.505 248.8 13.9 247.1 16
2002-09-17 07:48:13 51°9.205 2°36.471 249 14 246.2 16.1
2002-09-17 07:48:18 51°9.198 2°36.443 249.7 13.9 247.7 16.1
2002-09-17 07:48:23 51°9.19 2°36.416 248.7 13.8 246.3 16.1
2002-09-17 07:48:27 51°9.184 2°36.393 248.7 13.8 247.4 16.2
2002-09-17 07:48:33 51°9.175 2°36.359 249 13.9 246.6 16.2
2002-09-17 07:48:38 51°9.167 2°36.331 248.7 13.8 247.1 16.2
2002-09-17 07:48:43 51°9.16 2°36.303 248.3 13.8 246.6 16.3
2002-09-17 07:48:47 51°9.153 2°36.281 248.5 13.8 246.5 16.4
2002-09-17 07:48:53 51°9.144 2°36.247 248 13.9 245.8 16.4
2002-09-17 07:48:58 51°9.137 2°36.219 248.7 13.9 246.7 16.4
2002-09-17 07:49:03 51°9.128 2°36.192 247.8 13.8 245.6 16.5
2002-09-17 07:49:07 51°9.123 2°36.169 248.8 13.9 246.8 16.5
2002-09-17 07:49:13 51°9.113 2°36.136 248.7 13.9 246.4 16.5
2002-09-17 07:49:18 51°9.106 2°36.107 249.5 13.9 246.7 16.5
2002-09-17 07:49:22 51°9.1 2°36.085 248.7 13.9 246.6 16.6
2002-09-17 07:49:27 51°9.093 2°36.056 249.3 13.9 247.6 16.6
2002-09-17 07:49:33 51°9.084 2°36.023 249.3 13.9 247 16.6
2002-09-17 07:49:38 51°9.076 2°35.995 248 13.8 246.8 16.7
2002-09-17 07:49:43 51°9.068 2°35.967 247 13.8 245.7 16.6
2002-09-17 07:49:47 51°9.061 2°35.945 247.7 14 244.4 16.6
2002-09-17 07:49:54 51°9.051 2°35.905 248.5 14 246.9 16.7
2002-09-17 07:49:58 51°9.044 2°35.883 248.2 13.9 245.6 16.7
2002-09-17 07:50:03 51°9.037 2°35.855 248.2 13.8 246 16.8
2002-09-17 07:50:08 51°9.029 2°35.827 247.5 13.8 245.7 16.8
2002-09-17 07:50:14 51°9.02 2°35.794 247.8 13.9 245.8 16.9
2002-09-17 07:50:18 51°9.013 2°35.772 248.2 13.9 245.9 16.9
2002-09-17 07:50:23 51°9.006 2°35.743 248.5 13.9 246.2 16.9
2002-09-17 07:50:28 51°8.998 2°35.715 248.8 13.9 247.1 17
2002-09-17 07:50:33 51°8.991 2°35.687 248.8 13.9 246.9 17.1
2002-09-17 07:50:38 51°8.983 2°35.659 248.5 13.8 246.7 17.1
2002-09-17 07:50:43 51°8.976 2°35.631 248.3 13.8 246.7 17.1
2002-09-17 07:50:46 51°8.971 2°35.613 249.2 14 246.4 17.1
2002-09-17 07:50:53 51°8.961 2°35.574 249 13.9 248 17.1
2002-09-17 07:50:58 51°8.952 2°35.546 248.5 13.9 246.3 17.2
2002-09-17 07:51:03 51°8.946 2°35.517 249 13.9 247.1 17.3
2002-09-17 07:51:07 51°8.939 2°35.496 248.3 13.8 246.3 17.3
2002-09-17 07:51:14 51°8.928 2°35.457 247.7 13.8 246 17.3
2002-09-17 07:51:18 51°8.922 2°35.433 248.8 13.9 246.2 17.4
2002-09-17 07:51:23 51°8.915 2°35.406 249 13.8 247 17.4
2002-09-17 07:51:28 51°8.907 2°35.378 247.5 13.7 245.7 17.4
2002-09-17 07:51:33 51°8.899 2°35.349 249 13.9 246.7 17.3
2002-09-17 07:51:38 51°8.891 2°35.321 249.3 14 246.7 17.4
2002-09-17 07:51:43 51°8.885 2°35.293 248.8 13.9 247.6 17.5
2002-09-17 07:51:47 51°8.878 2°35.27 249.3 13.9 246.8 17.5
2002-09-17 07:51:54 51°8.868 2°35.231 248.7 13.9 247.3 17.5
2002-09-17 07:51:58 51°8.862 2°35.208 249.2 14 246.5 17.6
2002-09-17 07:52:03 51°8.854 2°35.18 249.2 13.9 246.8 17.7
2002-09-17 07:52:06 51°8.85 2°35.163 247.7 13.8 246.3 17.7
2002-09-17 07:52:13 51°8.839 2°35.124 249 13.9 246.2 17.7
2002-09-17 07:52:18 51°8.831 2°35.096 248.5 13.9 246.2 17.8
2002-09-17 07:52:23 51°8.823 2°35.068 247.3 13.8 246.4 17.8
2002-09-17 07:52:28 51°8.815 2°35.04 247.8 13.9 245.1 17.8
2002-09-17 07:52:33 51°8.808 2°35.012 249 13.9 246.9 17.8
2002-09-17 07:52:38 51°8.799 2°34.985 247.5 13.8 246.2 17.8
2002-09-17 07:52:43 51°8.792 2°34.955 248 13.9 246.6 17.8
2002-09-17 07:52:47 51°8.786 2°34.933 248.3 13.9 246.7 17.6
2002-09-17 07:52:53 51°8.776 2°34.9 248 13.9 245.9 17.9
2002-09-17 07:52:58 51°8.769 2°34.871 249.3 13.9 246.3 18
2002-09-17 07:53:03 51°8.761 2°34.844 248.3 13.9 246.7 18.1
2002-09-17 07:53:07 51°8.755 2°34.82 249.5 14 246.7 18.1
2002-09-17 07:53:13 51°8.747 2°34.786 249 14 247.8 18.3
2002-09-17 07:53:18 51°8.738 2°34.759 247.3 13.8 245.9 18.2
2002-09-17 07:53:23 51°8.731 2°34.731 248.7 13.8 246.3 18.2
2002-09-17 07:53:27 51°8.724 2°34.708 248.5 14 246.4 18.2
2002-09-17 07:53:34 51°8.714 2°34.668 249.7 14 246.8 18
2002-09-17 07:53:38 51°8.708 2°34.647 248.2 13.8 246.5 18.2
2002-09-17 07:53:42 51°8.701 2°34.624 248.5 13.9 245.7 18.2
2002-09-17 07:53:47 51°8.694 2°34.595 249.7 14 247.9 18.4
2002-09-17 07:53:53 51°8.684 2°34.562 248 13.9 246.2 18.5
2002-09-17 07:53:58 51°8.676 2°34.534 248.5 13.9 246 18.5
2002-09-17 07:54:03 51°8.669 2°34.505 249 13.9 246.8 18.6
2002-09-17 07:54:08 51°8.661 2°34.477 249.2 13.8 246.6 18.6
2002-09-17 07:54:14 51°8.651 2°34.445 247.5 13.8 245.5 18.6
2002-09-17 07:54:17 51°8.646 2°34.428 247.8 13.9 245 18.6
2002-09-17 07:54:23 51°8.637 2°34.395 246.8 13.8 245.7 18.5
2002-09-17 07:54:28 51°8.628 2°34.367 245.5 13.8 243.2 18.5
2002-09-17 07:54:33 51°8.62 2°34.34 246 13.8 243.9 18.6
2002-09-17 07:54:38 51°8.61 2°34.313 243.8 13.8 241.9 18.5
2002-09-17 07:54:42 51°8.603 2°34.291 243.7 14 241.9 18.5
2002-09-17 07:54:47 51°8.594 2°34.265 242.5 13.8 240.7 18.6
2002-09-17 07:54:53 51°8.582 2°34.234 241.2 13.6 239.9 18.5
2002-09-17 07:54:58 51°8.571 2°34.208 241.5 13.9 237.5 18.4
2002-09-17 07:55:03 51°8.563 2°34.18 241.3 14 240.9 18.5
2002-09-17 07:55:07 51°8.553 2°34.161 240 13.8 238.1 18.5
2002-09-17 07:55:13 51°8.542 2°34.129 239.5 13.7 238.2 18.5
2002-09-17 07:55:18 51°8.531 2°34.105 238 13.8 235.7 18.5
2002-09-17 07:55:23 51°8.521 2°34.079 237.7 13.8 236.6 18.5
2002-09-17 07:55:27 51°8.511 2°34.06 237.3 14 234.4 18.4
2002-09-17 07:55:33 51°8.498 2°34.028 237.3 14.1 236 18.5
2002-09-17 07:55:38 51°8.487 2°34.004 237.7 13.8 235.1 18.5
2002-09-17 07:55:43 51°8.476 2°33.98 235.7 13.7 234.5 18.5
2002-09-17 07:55:47 51°8.467 2°33.959 237.2 13.9 234.8 18.3
2002-09-17 07:55:53 51°8.454 2°33.928 238.8 14.2 235.4 18.4
2002-09-17 07:55:58 51°8.444 2°33.903 237.8 14 236.3 18.5
2002-09-17 07:56:03 51°8.432 2°33.879 236.8 13.6 234.3 18.4
2002-09-17 07:56:07 51°8.424 2°33.858 237.2 13.7 235.3 18.3
2002-09-17 07:56:14 51°8.408 2°33.822 238.3 14 235.3 18.4
2002-09-17 07:56:18 51°8.399 2°33.803 238.2 14 236.1 18.3
2002-09-17 07:56:23 51°8.389 2°33.777 238.3 14 236.2 18.4
2002-09-17 07:56:27 51°8.38 2°33.756 239 13.9 236.2 18.3
2002-09-17 07:56:33 51°8.367 2°33.726 237.2 13.9 235.7 18.3
2002-09-17 07:56:38 51°8.356 2°33.701 237.5 13.9 235.3 18.2
2002-09-17 07:56:43 51°8.345 2°33.675 238.3 14 235.7 18.3
2002-09-17 07:56:48 51°8.335 2°33.65 238.3 13.9 236.2 18.3
2002-09-17 07:56:53 51°8.324 2°33.624 238 13.9 236 18.2
2002-09-17 07:56:58 51°8.313 2°33.598 238.8 14 235.8 18.3
2002-09-17 07:57:03 51°8.302 2°33.573 239 14 236.7 18.3
2002-09-17 07:57:07 51°8.294 2°33.553 239 13.9 236.3 18.2
2002-09-17 07:57:14 51°8.279 2°33.516 239.5 13.9 236.8 18.1
2002-09-17 07:57:18 51°8.271 2°33.495 240.5 14 237.7 18.1
2002-09-17 07:57:23 51°8.26 2°33.47 238.8 13.9 236.8 18
2002-09-17 07:57:27 51°8.252 2°33.449 239 13.9 237.2 18
2002-09-17 07:57:33 51°8.239 2°33.419 238.3 13.8 236.1 17.9
2002-09-17 07:57:38 51°8.229 2°33.394 238.2 13.8 235.7 17.9
2002-09-17 07:57:43 51°8.218 2°33.368 238.7 13.9 236.3 17.9
2002-09-17 07:57:47 51°8.209 2°33.349 238 13.9 235.1 17.8
2002-09-17 07:57:54 51°8.194 2°33.314 237.5 13.7 235.7 17.9
2002-09-17 07:57:58 51°8.185 2°33.294 237.2 13.7 234.6 17.8
2002-09-17 07:58:03 51°8.174 2°33.269 237.7 13.8 234.9 17.8
2002-09-17 07:58:08 51°8.163 2°33.243 237.7 13.9 234.8 17.6
2002-09-17 07:58:14 51°8.151 2°33.213 238.3 13.9 236.3 17.7
2002-09-17 07:58:18 51°8.141 2°33.194 236.8 13.7 234.9 17.6
2002-09-17 07:58:23 51°8.13 2°33.169 236.8 13.8 234.8 17.5
2002-09-17 07:58:28 51°8.119 2°33.144 237.5 14 234.2 17.5
2002-09-17 07:58:33 51°8.108 2°33.118 237.2 14 235.3 17.6
2002-09-17 07:58:38 51°8.097 2°33.094 237.3 13.9 234.5 17.5
2002-09-17 07:58:43 51°8.086 2°33.069 237.2 13.8 234.7 17.3
2002-09-17 07:58:47 51°8.077 2°33.048 237.3 13.9 234.9 17.2
2002-09-17 07:58:54 51°8.062 2°33.013 237.5 13.9 234.6 17.2
2002-09-17 07:58:59 51°8.05 2°32.989 236.7 13.9 235 17.1
2002-09-17 07:59:03 51°8.042 2°32.968 237.7 13.9 234.8 17.2
2002-09-17 07:59:07 51°8.033 2°32.948 238 13.8 235.4 17
2002-09-17 07:59:13 51°8.02 2°32.919 236.7 13.8 234.8 16.8
2002-09-17 07:59:18 51°8.009 2°32.894 237.3 13.9 234.5 16.6
2002-09-17 07:59:23 51°7.998 2°32.869 236.5 13.8 234.8 16.7
2002-09-17 07:59:26 51°7.991 2°32.854 237 13.8 234.3 16.6
2002-09-17 07:59:33 51°7.976 2°32.819 238 13.8 235.5 16.7
2002-09-17 07:59:38 51°7.965 2°32.795 237 13.8 234.5 16.6
2002-09-17 07:59:43 51°7.954 2°32.769 237.2 13.8 235.2 16.5
2002-09-17 07:59:47 51°7.945 2°32.75 236.8 13.7 235.1 16.3
2002-09-17 07:59:53 51°7.932 2°32.721 236.3 13.6 234.1 16.4
2002-09-17 07:59:58 51°7.921 2°32.696 235.8 13.7 234.4 16.2
2002-09-17 08:00:03 51°7.91 2°32.671 236.3 13.8 234.2 16.2
2002-09-17 08:00:09 51°7.896 2°32.643 236.2 13.8 234.7 16.4
2002-09-17 08:00:13 51°7.888 2°32.623 236.3 13.6 234.3 16.3
2002-09-17 08:00:18 51°7.877 2°32.599 235.5 13.4 234.1 15.9
2002-09-17 08:00:23 51°7.865 2°32.575 235 13.6 233.5 15.9
2002-09-17 08:00:27 51°7.856 2°32.555 235.8 13.7 233.3 15.7
2002-09-17 08:00:34 51°7.84 2°32.522 235.2 13.7 233.6 15.8
2002-09-17 08:00:38 51°7.831 2°32.504 234.7 13.5 231.8 15.6
2002-09-17 08:00:43 51°7.82 2°32.479 234.3 13.5 232.7 15.7